sensor_id;sensor_type;location;lat;lon;timestamp;P1;durP1;ratioP1;P2;durP2;ratioP2
57291;SDS011;43144;50.972;18.220;2023-02-28T00:04:52;12.20;;;11.20;;
57291;SDS011;43144;50.972;18.220;2023-02-28T00:14:41;23.10;;;17.60;;
57291;SDS011;43144;50.972;18.220;2023-02-28T00:24:31;26.30;;;16.60;;
57291;SDS011;43144;50.972;18.220;2023-02-28T00:34:20;24.00;;;19.00;;
57291;SDS011;43144;50.972;18.220;2023-02-28T00:44:09;25.70;;;19.30;;
57291;SDS011;43144;50.972;18.220;2023-02-28T00:53:58;19.90;;;17.80;;
57291;SDS011;43144;50.972;18.220;2023-02-28T01:03:47;15.70;;;14.40;;
57291;SDS011;43144;50.972;18.220;2023-02-28T01:13:37;11.70;;;10.90;;
57291;SDS011;43144;50.972;18.220;2023-02-28T01:23:31;13.20;;;12.20;;
57291;SDS011;43144;50.972;18.220;2023-02-28T01:33:25;11.50;;;10.70;;
57291;SDS011;43144;50.972;18.220;2023-02-28T01:43:22;11.50;;;10.30;;
57291;SDS011;43144;50.972;18.220;2023-02-28T01:53:16;8.40;;;7.60;;
57291;SDS011;43144;50.972;18.220;2023-02-28T02:03:10;10.80;;;10.10;;
57291;SDS011;43144;50.972;18.220;2023-02-28T02:13:08;8.90;;;8.40;;
57291;SDS011;43144;50.972;18.220;2023-02-28T02:23:28;8.50;;;7.80;;
57291;SDS011;43144;50.972;18.220;2023-02-28T02:44:28;9.40;;;8.80;;
57291;SDS011;43144;50.972;18.220;2023-02-28T02:54:23;10.10;;;9.10;;
57291;SDS011;43144;50.972;18.220;2023-02-28T03:04:17;10.30;;;9.50;;
57291;SDS011;43144;50.972;18.220;2023-02-28T03:14:11;13.50;;;11.30;;
57291;SDS011;43144;50.972;18.220;2023-02-28T03:24:37;14.60;;;13.40;;
57291;SDS011;43144;50.972;18.220;2023-02-28T03:34:33;14.50;;;13.10;;
57291;SDS011;43144;50.972;18.220;2023-02-28T03:44:30;22.00;;;19.60;;
57291;SDS011;43144;50.972;18.220;2023-02-28T03:54:25;21.20;;;18.90;;
57291;SDS011;43144;50.972;18.220;2023-02-28T04:04:19;19.50;;;17.90;;
57291;SDS011;43144;50.972;18.220;2023-02-28T04:14:09;16.30;;;14.70;;
57291;SDS011;43144;50.972;18.220;2023-02-28T04:24:01;11.90;;;10.80;;
57291;SDS011;43144;50.972;18.220;2023-02-28T04:33:52;124.10;;;52.30;;
57291;SDS011;43144;50.972;18.220;2023-02-28T04:43:42;96.80;;;42.30;;
57291;SDS011;43144;50.972;18.220;2023-02-28T04:53:33;107.00;;;44.00;;
57291;SDS011;43144;50.972;18.220;2023-02-28T05:03:25;88.00;;;45.80;;
57291;SDS011;43144;50.972;18.220;2023-02-28T05:13:14;50.90;;;27.10;;
57291;SDS011;43144;50.972;18.220;2023-02-28T05:23:03;16.20;;;14.70;;
57291;SDS011;43144;50.972;18.220;2023-02-28T05:32:54;22.20;;;18.50;;
57291;SDS011;43144;50.972;18.220;2023-02-28T05:42:44;21.40;;;19.40;;
57291;SDS011;43144;50.972;18.220;2023-02-28T05:52:35;27.80;;;25.10;;
57291;SDS011;43144;50.972;18.220;2023-02-28T06:02:24;32.90;;;29.40;;
57291;SDS011;43144;50.972;18.220;2023-02-28T06:12:14;67.60;;;52.40;;
57291;SDS011;43144;50.972;18.220;2023-02-28T06:22:05;87.40;;;51.40;;
57291;SDS011;43144;50.972;18.220;2023-02-28T06:31:54;55.00;;;41.10;;
57291;SDS011;43144;50.972;18.220;2023-02-28T06:41:45;37.60;;;33.50;;
57291;SDS011;43144;50.972;18.220;2023-02-28T06:51:35;97.40;;;59.70;;
57291;SDS011;43144;50.972;18.220;2023-02-28T07:01:26;48.20;;;42.50;;
57291;SDS011;43144;50.972;18.220;2023-02-28T07:08:48;40.60;;;32.90;;
57291;SDS011;43144;50.972;18.220;2023-02-28T07:18:38;33.50;;;25.10;;
57291;SDS011;43144;50.972;18.220;2023-02-28T07:28:29;33.90;;;29.70;;
57291;SDS011;43144;50.972;18.220;2023-02-28T07:38:28;39.70;;;27.90;;
57291;SDS011;43144;50.972;18.220;2023-02-28T07:48:18;30.40;;;25.40;;
57291;SDS011;43144;50.972;18.220;2023-02-28T07:58:18;12.80;;;8.30;;
57291;SDS011;43144;50.972;18.220;2023-02-28T08:03:16;7.10;;;6.50;;
57291;SDS011;43144;50.972;18.220;2023-02-28T08:13:18;45.00;;;30.00;;
57291;SDS011;43144;50.972;18.220;2023-02-28T08:23:08;3.60;;;3.40;;
57291;SDS011;43144;50.972;18.220;2023-02-28T08:33:00;4.10;;;3.70;;
57291;SDS011;43144;50.972;18.220;2023-02-28T08:42:53;7.40;;;6.80;;
57291;SDS011;43144;50.972;18.220;2023-02-28T08:52:43;8.00;;;6.60;;
57291;SDS011;43144;50.972;18.220;2023-02-28T09:02:34;6.60;;;6.10;;
57291;SDS011;43144;50.972;18.220;2023-02-28T09:12:23;10.40;;;9.40;;
57291;SDS011;43144;50.972;18.220;2023-02-28T09:22:15;12.40;;;9.70;;
57291;SDS011;43144;50.972;18.220;2023-02-28T09:32:05;22.50;;;20.30;;
57291;SDS011;43144;50.972;18.220;2023-02-28T09:41:56;8.00;;;7.40;;
57291;SDS011;43144;50.972;18.220;2023-02-28T09:51:52;9.70;;;8.90;;
57291;SDS011;43144;50.972;18.220;2023-02-28T10:01:53;27.60;;;25.30;;
57291;SDS011;43144;50.972;18.220;2023-02-28T10:11:54;11.20;;;10.00;;
57291;SDS011;43144;50.972;18.220;2023-02-28T10:21:54;32.30;;;24.00;;
57291;SDS011;43144;50.972;18.220;2023-02-28T10:31:49;33.30;;;27.90;;
57291;SDS011;43144;50.972;18.220;2023-02-28T10:41:55;15.40;;;13.00;;
57291;SDS011;43144;50.972;18.220;2023-02-28T10:51:54;11.20;;;10.40;;
57291;SDS011;43144;50.972;18.220;2023-02-28T11:02:01;9.60;;;8.90;;
57291;SDS011;43144;50.972;18.220;2023-02-28T11:11:57;12.20;;;8.60;;
57291;SDS011;43144;50.972;18.220;2023-02-28T11:21:51;47.70;;;15.50;;
57291;SDS011;43144;50.972;18.220;2023-02-28T11:42:14;31.60;;;13.10;;
57291;SDS011;43144;50.972;18.220;2023-02-28T11:52:27;16.10;;;11.30;;
57291;SDS011;43144;50.972;18.220;2023-02-28T12:02:35;34.10;;;24.50;;
57291;SDS011;43144;50.972;18.220;2023-02-28T12:12:46;17.90;;;9.90;;
57291;SDS011;43144;50.972;18.220;2023-02-28T12:22:54;6.90;;;6.50;;
57291;SDS011;43144;50.972;18.220;2023-02-28T12:33:12;24.20;;;11.00;;
57291;SDS011;43144;50.972;18.220;2023-02-28T12:43:10;11.50;;;10.60;;
57291;SDS011;43144;50.972;18.220;2023-02-28T12:50:39;14.40;;;11.20;;
57291;SDS011;43144;50.972;18.220;2023-02-28T13:00:35;8.90;;;8.30;;
57291;SDS011;43144;50.972;18.220;2023-02-28T13:11:26;10.10;;;9.20;;
57291;SDS011;43144;50.972;18.220;2023-02-28T13:21:23;35.90;;;26.00;;
57291;SDS011;43144;50.972;18.220;2023-02-28T13:43:01;10.20;;;9.50;;
57291;SDS011;43144;50.972;18.220;2023-02-28T14:11:25;16.70;;;15.10;;
57291;SDS011;43144;50.972;18.220;2023-02-28T14:21:22;10.50;;;9.70;;
57291;SDS011;43144;50.972;18.220;2023-02-28T14:31:51;12.10;;;10.80;;
57291;SDS011;43144;50.972;18.220;2023-02-28T14:41:56;12.60;;;11.60;;
57291;SDS011;43144;50.972;18.220;2023-02-28T14:51:49;14.60;;;13.20;;
57291;SDS011;43144;50.972;18.220;2023-02-28T15:01:53;13.50;;;12.30;;
57291;SDS011;43144;50.972;18.220;2023-02-28T15:12:05;16.10;;;13.60;;
57291;SDS011;43144;50.972;18.220;2023-02-28T15:21:57;18.70;;;17.20;;
57291;SDS011;43144;50.972;18.220;2023-02-28T15:31:58;27.40;;;24.50;;
57291;SDS011;43144;50.972;18.220;2023-02-28T15:41:51;13.10;;;11.80;;
57291;SDS011;43144;50.972;18.220;2023-02-28T15:51:50;26.40;;;20.30;;
57291;SDS011;43144;50.972;18.220;2023-02-28T16:01:43;26.80;;;22.20;;
57291;SDS011;43144;50.972;18.220;2023-02-28T16:11:37;28.40;;;25.40;;
57291;SDS011;43144;50.972;18.220;2023-02-28T16:21:35;25.80;;;17.90;;
57291;SDS011;43144;50.972;18.220;2023-02-28T16:31:27;58.30;;;29.50;;
57291;SDS011;43144;50.972;18.220;2023-02-28T16:41:18;85.60;;;42.20;;
57291;SDS011;43144;50.972;18.220;2023-02-28T16:51:13;101.40;;;45.10;;
57291;SDS011;43144;50.972;18.220;2023-02-28T17:01:06;136.60;;;57.10;;
57291;SDS011;43144;50.972;18.220;2023-02-28T17:10:55;106.70;;;49.90;;
57291;SDS011;43144;50.972;18.220;2023-02-28T17:20:45;98.70;;;53.10;;
57291;SDS011;43144;50.972;18.220;2023-02-28T17:30:35;99.10;;;63.40;;
57291;SDS011;43144;50.972;18.220;2023-02-28T17:37:57;122.40;;;86.60;;
57291;SDS011;43144;50.972;18.220;2023-02-28T17:47:47;82.90;;;54.50;;
57291;SDS011;43144;50.972;18.220;2023-02-28T17:57:40;73.40;;;52.10;;
57291;SDS011;43144;50.972;18.220;2023-02-28T18:07:32;85.50;;;60.10;;
57291;SDS011;43144;50.972;18.220;2023-02-28T18:17:21;70.00;;;50.20;;
57291;SDS011;43144;50.972;18.220;2023-02-28T18:27:10;47.80;;;37.40;;
57291;SDS011;43144;50.972;18.220;2023-02-28T18:37:00;42.70;;;37.60;;
57291;SDS011;43144;50.972;18.220;2023-02-28T18:46:49;37.90;;;32.20;;
57291;SDS011;43144;50.972;18.220;2023-02-28T18:56:39;82.20;;;55.60;;
57291;SDS011;43144;50.972;18.220;2023-02-28T19:06:29;101.70;;;61.70;;
57291;SDS011;43144;50.972;18.220;2023-02-28T19:16:21;116.00;;;75.90;;
57291;SDS011;43144;50.972;18.220;2023-02-28T19:33:38;73.00;;;54.50;;
57291;SDS011;43144;50.972;18.220;2023-02-28T19:43:28;47.10;;;34.90;;
57291;SDS011;43144;50.972;18.220;2023-02-28T19:53:17;41.30;;;35.30;;
57291;SDS011;43144;50.972;18.220;2023-02-28T20:03:07;55.30;;;36.00;;
57291;SDS011;43144;50.972;18.220;2023-02-28T20:20:17;101.00;;;58.90;;
57291;SDS011;43144;50.972;18.220;2023-02-28T20:30:08;250.00;;;127.60;;
57291;SDS011;43144;50.972;18.220;2023-02-28T20:39:59;180.60;;;100.00;;
57291;SDS011;43144;50.972;18.220;2023-02-28T20:49:49;225.80;;;126.50;;
57291;SDS011;43144;50.972;18.220;2023-02-28T20:59:39;108.10;;;63.30;;
57291;SDS011;43144;50.972;18.220;2023-02-28T21:09:28;67.10;;;41.60;;
57291;SDS011;43144;50.972;18.220;2023-02-28T21:19:18;82.80;;;51.90;;
57291;SDS011;43144;50.972;18.220;2023-02-28T21:29:08;100.40;;;64.60;;
57291;SDS011;43144;50.972;18.220;2023-02-28T21:39:02;91.30;;;59.20;;
57291;SDS011;43144;50.972;18.220;2023-02-28T21:48:53;96.80;;;64.50;;
57291;SDS011;43144;50.972;18.220;2023-02-28T21:58:45;67.60;;;50.70;;
57291;SDS011;43144;50.972;18.220;2023-02-28T22:08:39;69.70;;;48.10;;
57291;SDS011;43144;50.972;18.220;2023-02-28T22:18:30;52.30;;;41.60;;
57291;SDS011;43144;50.972;18.220;2023-02-28T22:28:19;75.50;;;50.60;;
57291;SDS011;43144;50.972;18.220;2023-02-28T22:38:09;59.60;;;27.90;;
57291;SDS011;43144;50.972;18.220;2023-02-28T22:48:00;98.10;;;59.10;;
57291;SDS011;43144;50.972;18.220;2023-02-28T22:57:50;102.60;;;66.00;;
57291;SDS011;43144;50.972;18.220;2023-02-28T23:07:40;121.30;;;74.60;;
57291;SDS011;43144;50.972;18.220;2023-02-28T23:17:33;114.30;;;68.70;;
57291;SDS011;43144;50.972;18.220;2023-02-28T23:22:32;111.70;;;79.10;;
57291;SDS011;43144;50.972;18.220;2023-02-28T23:32:23;111.90;;;67.00;;
57291;SDS011;43144;50.972;18.220;2023-02-28T23:42:12;98.80;;;65.50;;
57291;SDS011;43144;50.972;18.220;2023-02-28T23:52:01;45.60;;;33.00;;
